Buoy 46770

sailwx.info

Track history (hours):
 
Tides and Currents Weather Stations Pressure Air Temp Water Temp Dewpoint Dewpoint Depression Visibility Wind Speed Wind Dir Waves Ship Positions

Drifting buoy 46770

Last reported at 2017-Aug-24 06:00 UTC. Time now 2017-Aug-24 08:50 UTC.
Position N 26°15' W 131°43'.

Barometer 1018.1 mb
Water temperature 22.3 ° C

Date/timePositionNaut miles runAvg speedWind from/ knotsBaromVisibWave heightAir tempDewpointWater temp
2017-Aug-24 06:00N 26°15' W 131°43'0 0.0 1018.1 22.3
2017-Aug-24 05:00N 26°15' W 131°43'1 0.5 1017.9 22.3
2017-Aug-24 04:00N 26°15' W 131°43'1 0.5 1017.4 22.3
2017-Aug-24 03:00N 26°15' W 131°42'1 0.6 1016.9 22.4
2017-Aug-24 02:00N 26°14' W 131°42'1 0.5 1016.5 22.4
2017-Aug-24 01:00N 26°14' W 131°41'0 0.0 1016.5 22.4
2017-Aug-24 00:00N 26°14' W 131°41'0 0.0 1016.6 22.4
2017-Aug-23 23:00N 26°14' W 131°41'0 0.0 1016.8 22.4
2017-Aug-23 22:00N 26°14' W 131°41'0 0.0 1017.1 22.4
2017-Aug-23 21:00N 26°14' W 131°41'2 1.0 1017.3 22.4
2017-Aug-23 19:00N 26°13' W 131°40'1 0.5 1017.8 22.3
2017-Aug-23 18:00N 26°13' W 131°40'1 0.8 1017.7 22.4
2017-Aug-23 17:00N 26°12' W 131°40'1 1.1 1017.7 22.4
2017-Aug-23 16:00N 26°12' W 131°39'2 1.6 1017.3 22.4
2017-Aug-23 15:00N 26°11' W 131°38'1 1.1 1017.0 22.4
2017-Aug-23 14:00N 26°11' W 131°37'0 0.0 1016.5 22.4
2017-Aug-23 13:00N 26°11' W 131°37'0 0.0 1016.3 22.5
2017-Aug-23 12:00N 26°11' W 131°37'4 4.0 1016.4 22.5
2017-Aug-23 11:00N 26°10' W 131°32'3 2.9 1016.7 22.5
2017-Aug-23 10:00N 26°11' W 131°35'4 1.3 1017.3 22.5
2017-Aug-23 07:00N 26°10' W 131°31'1 0.5 1018.0 22.6
2017-Aug-23 06:00N 26°10' W 131°32'1 1.2 1018.3 22.6
2017-Aug-23 05:00N 26°10' W 131°31'1 0.5 1017.8 22.6
2017-Aug-23 04:00N 26°10' W 131°30'1 0.8 1017.5 22.6
2017-Aug-23 03:00N 26°11' W 131°29'1 0.8 1017.4 22.6
2017-Aug-23 02:00N 26°11' W 131°29'0 0.0 1017.1 22.6
2017-Aug-23 01:00N 26°11' W 131°29'1 0.6 1017.0 22.7
2017-Aug-23 00:00N 26°12' W 131°29'0 0.0 1017.1 22.7
2017-Aug-22 22:00N 26°12' W 131°29'1 0.2 1018.1 22.7
2017-Aug-22 19:00N 26°13' W 131°29'0 0.0 1019.2 22.4
2017-Aug-22 18:00N 26°13' W 131°29'0 0.0 1018.7 22.4
2017-Aug-22 17:00N 26°13' W 131°29'0 0.0 1018.6 22.3
2017-Aug-22 16:00N 26°13' W 131°29'1 0.8 1018.1 22.3
2017-Aug-22 15:00N 26°12' W 131°28'0 0.0 1017.8 22.3
2017-Aug-22 14:00N 26°12' W 131°28'0 0.0 1017.3 22.3
2017-Aug-22 13:00N 26°12' W 131°28'0 0.0 1016.9 22.3
2017-Aug-22 12:00N 26°12' W 131°28'1 1.2 1016.8 22.3
2017-Aug-22 11:00N 26°11' W 131°27'1 1.2 1016.8 22.2
2017-Aug-22 10:00N 26°12' W 131°28'2 0.7 1016.8 22.2
2017-Aug-22 07:00N 26°11' W 131°26'1 0.5 1018.1 22.2
2017-Aug-22 06:00N 26°11' W 131°25'1 0.8 1018.3 22.2
2017-Aug-22 05:00N 26°12' W 131°25'1 0.8 1018.0 22.2
2017-Aug-22 04:00N 26°13' W 131°24'2 1.6 1017.6 22.2
2017-Aug-22 03:00N 26°13' W 131°22'1 1.2 1017.0 22.3
2017-Aug-22 02:00N 26°13' W 131°23'1 1.3 1016.8 22.3
2017-Aug-22 01:00N 26°14' W 131°23'0 0.0 1017.1 22.3
2017-Aug-22 00:00N 26°14' W 131°23'1 0.7 1017.0 22.3
2017-Aug-21 22:00N 26°16' W 131°22'2 0.9 1018.1 22.3
2017-Aug-21 20:00N 26°17' W 131°22'1 0.8 1018.8 22.2
2017-Aug-21 19:00N 26°18' W 131°23'0 0.0 1019.1 22.2
2017-Aug-21 18:00N 26°18' W 131°23'1 0.8 1019.1 22.2
2017-Aug-21 17:00N 26°17' W 131°23'1 0.4 1018.9 22.2
2017-Aug-21 15:00N 26°18' W 131°24'2 0.8 1018.0 22.2
2017-Aug-21 13:00N 26°17' W 131°23'0 0.0 1017.4 22.2
2017-Aug-21 12:00N 26°17' W 131°23'2 1.7 1017.4 22.2
2017-Aug-21 11:00N 26°17' W 131°21'2 1.7 1017.5 22.3
2017-Aug-21 10:00N 26°17' W 131°23'2 0.6 1017.9 22.3
2017-Aug-21 07:00N 26°17' W 131°21'1 1.1 1018.8 22.3
2017-Aug-21 06:00N 26°17' W 131°20'0 0.0 1018.5 22.3
2017-Aug-21 05:00N 26°17' W 131°20'1 1.2 1018.0 22.3
2017-Aug-21 04:00N 26°18' W 131°19'0 0.0 1017.5 22.3
2017-Aug-21 03:00N 26°18' W 131°19'1 0.8 1016.9 22.4
2017-Aug-21 02:00N 26°19' W 131°18'1 0.6 1016.7 22.4
2017-Aug-21 01:00N 26°19' W 131°18'0 0.0 1016.5 22.4
2017-Aug-21 00:00N 26°19' W 131°18'1 0.8 1016.7 22.4
2017-Aug-20 23:00N 26°20' W 131°17'0 0.0 1017.0 22.4
2017-Aug-20 22:00N 26°20' W 131°17'3 1.0 1017.8 22.4
2017-Aug-20 19:00N 26°22' W 131°16'0 0.0 1018.9 22.3
2017-Aug-20 18:00N 26°22' W 131°16'1 0.6 1018.8 22.3
2017-Aug-20 17:00N 26°23' W 131°16'0 0.0 1018.7 22.3
2017-Aug-20 16:00N 26°23' W 131°16'0 0.0 1018.6 22.3
2017-Aug-20 15:00N 26°23' W 131°16'1 0.6 1017.9 22.3
2017-Aug-20 14:00N 26°23' W 131°16'1 0.6 1017.5 22.3
2017-Aug-20 13:00N 26°24' W 131°16'0 0.0 1017.6 22.3
2017-Aug-20 12:00N 26°24' W 131°16'1 0.8 1017.8 22.4
2017-Aug-20 11:00N 26°23' W 131°15'2 0.3 1017.9 22.4
2017-Aug-20 06:00N 26°25' W 131°14'1 0.5 1019.4 22.4
2017-Aug-20 05:00N 26°25' W 131°13'0 0.0 1018.6 22.4
2017-Aug-20 04:00N 26°25' W 131°13'0 0.0 1018.0 22.5
2017-Aug-20 03:00N 26°25' W 131°13'1 0.5 1017.4 22.5
2017-Aug-20 02:00N 26°25' W 131°13'1 0.5 1017.2 22.6
2017-Aug-20 01:00N 26°25' W 131°12'1 1.2 1017.2 22.6
2017-Aug-20 00:00N 26°25' W 131°11'0 0.0 1017.4 22.6
2017-Aug-19 23:00N 26°25' W 131°11'0 0.0 1017.8 22.6
2017-Aug-19 22:00N 26°25' W 131°11'3 1.6 1018.5 22.6
2017-Aug-19 20:00N 26°28' W 131°08'1 0.6 1019.4 22.5
2017-Aug-19 19:00N 26°28' W 131°08'1 1.2 1019.4 22.4
2017-Aug-19 18:00N 26°29' W 131°08'1 0.5 1019.6 22.4
2017-Aug-19 17:00N 26°29' W 131°08'1 0.6 1019.3 22.4
2017-Aug-19 16:00N 26°30' W 131°08'0 0.0 1018.8 22.3
2017-Aug-19 15:00N 26°30' W 131°08'1 0.5 1018.4 22.3
2017-Aug-19 14:00N 26°30' W 131°08'1 1.2 1018.0 22.3
2017-Aug-19 13:00N 26°31' W 131°07'1 0.8 1017.7 22.3
2017-Aug-19 12:00N 26°31' W 131°08'0 0.0 1017.7 22.4
2017-Aug-19 11:00N 26°31' W 131°08'1 0.2 1018.0 22.4
2017-Aug-19 06:00N 26°32' W 131°07'1 0.5 1018.9 22.4
2017-Aug-19 05:00N 26°32' W 131°06'0 0.0 1018.8 22.4
2017-Aug-19 04:00N 26°32' W 131°06'1 1.1 1018.3 22.4
2017-Aug-19 03:00N 26°32' W 131°05'0 0.0 1017.9 22.5
2017-Aug-19 02:00N 26°32' W 131°05'1 0.5 1017.5 22.5
2017-Aug-19 01:00N 26°32' W 131°04'1 0.5 1017.4 22.5
2017-Aug-19 00:00N 26°32' W 131°04'0 0.0 1017.6 22.5
2017-Aug-18 23:00N 26°32' W 131°04'3 0.7 1017.9 22.5
2017-Aug-18 19:00N 26°33' W 131°01'1 0.4 1019.5 22.3
2017-Aug-18 17:00N 26°34' W 131°00'1 0.6 1019.4 22.4
2017-Aug-18 16:00N 26°34' W 131°00'1 0.8 1019.1 22.4
2017-Aug-18 15:00N 26°35' W 130°59'0 0.0 1018.7 22.3
2017-Aug-18 14:00N 26°35' W 130°59'0 0.0 1018.4 22.4
2017-Aug-18 13:00N 26°35' W 130°59'0 0.0 1018.0 22.4
2017-Aug-18 12:00N 26°35' W 130°59'0 0.0 1017.9 22.4
2017-Aug-18 11:00N 26°35' W 130°59'1 0.2 1017.7 22.4
2017-Aug-18 07:00N 26°35' W 130°59'1 1.1 1019.1 22.4
2017-Aug-18 06:00N 26°35' W 130°58'1 0.5 1019.1 22.5
2017-Aug-18 05:00N 26°35' W 130°57'1 0.6 1018.7 22.5
2017-Aug-18 04:00N 26°36' W 130°57'1 0.5 1018.2 22.5
2017-Aug-18 03:00N 26°36' W 130°56'1 0.5 1017.8 22.5
2017-Aug-18 02:00N 26°36' W 130°56'1 1.2 1017.6 22.6
2017-Aug-18 01:00N 26°35' W 130°55'0 0.0 1017.6 22.6
2017-Aug-18 00:00N 26°35' W 130°55'0 0.0 1017.7 22.6
2017-Aug-17 23:00N 26°35' W 130°55'3 0.8 1017.8 22.6
2017-Aug-17 19:00N 26°36' W 130°51'1 0.8 1019.0 22.4
2017-Aug-17 18:00N 26°37' W 130°50'0 0.0 1018.8 22.3
2017-Aug-17 17:00N 26°37' W 130°50'1 0.6 1018.6 22.3
2017-Aug-17 16:00N 26°37' W 130°50'1 1.1 1018.5 22.3
2017-Aug-17 15:00N 26°37' W 130°49'0 0.0 1018.0 22.3
2017-Aug-17 14:00N 26°37' W 130°49'2 0.8 1017.6 22.4
2017-Aug-17 12:00N 26°37' W 130°47'0 0.0 1017.0 22.4
2017-Aug-17 11:00N 26°37' W 130°47'0 0.0 1016.9 22.4
2017-Aug-17 07:00N 26°37' W 130°47'1 0.5 1018.1 22.4
2017-Aug-17 06:00N 26°37' W 130°47'0 0.0 1017.8 22.4
2017-Aug-17 05:00N 26°37' W 130°47'1 1.1 1017.4 22.4
2017-Aug-17 04:00N 26°37' W 130°46'0 0.0 1016.9 22.5
2017-Aug-17 03:00N 26°37' W 130°46'1 0.5 1016.4 22.5
2017-Aug-17 02:00N 26°37' W 130°45'0 0.0 1016.1 22.5
2017-Aug-17 01:00N 26°37' W 130°45'2 0.9 1016.2 22.5
2017-Aug-16 23:00N 26°37' W 130°43'0 0.0 1016.3 22.5
2017-Aug-16 22:00N 26°37' W 130°43'0 0.0 1016.7 22.4
2017-Aug-16 21:00N 26°37' W 130°43'2 0.9 1016.9 22.4
2017-Aug-16 19:00N 26°37' W 130°41'1 0.5 1017.1 22.3
2017-Aug-16 18:00N 26°37' W 130°42'0 0.0 1017.1 22.3
2017-Aug-16 17:00N 26°37' W 130°42'1 0.8 1017.1 22.3
2017-Aug-16 16:00N 26°38' W 130°41'0 0.0 1016.8 22.2
2017-Aug-16 15:00N 26°38' W 130°41'1 0.5 1016.3 22.2
2017-Aug-16 14:00N 26°38' W 130°41'0 0.0 1015.9 22.2
2017-Aug-16 13:00N 26°38' W 130°41'0 0.0 1015.5 22.2
2017-Aug-16 12:00N 26°38' W 130°41'0 0.0 1015.5 22.2
2017-Aug-16 10:00N 26°38' W 130°41'1 0.4 1015.6 22.2
2017-Aug-16 07:00N 26°38' W 130°40'0 0.0 1016.8 22.2
2017-Aug-16 06:00N 26°38' W 130°40'1 0.5 1017.0 22.2
2017-Aug-16 05:00N 26°38' W 130°39'1 0.8 1016.6 22.2
2017-Aug-16 04:00N 26°38' W 130°38'0 0.0 1016.0 22.2
2017-Aug-16 03:00N 26°38' W 130°38'0 0.0 1015.5 22.2
2017-Aug-16 02:00N 26°38' W 130°38'1 1.2 1015.3 22.2
2017-Aug-16 01:00N 26°39' W 130°37'0 0.0 1015.4 22.2
2017-Aug-16 00:00N 26°39' W 130°37'0 0.0 1015.6 22.2
2017-Aug-15 23:00N 26°39' W 130°37'0 0.0 1015.7 22.2
2017-Aug-15 22:00N 26°39' W 130°37'1 1.2 1015.9 22.2
2017-Aug-15 21:00N 26°40' W 130°36'1 0.3 1016.4 22.1
2017-Aug-15 19:00N 26°40' W 130°35'0 0.0 1016.9 22.1
2017-Aug-15 18:00N 26°40' W 130°35'1 1.3 1016.8 22.1
2017-Aug-15 17:00N 26°41' W 130°35'1 0.8 1016.7 22.1
2017-Aug-15 16:00N 26°40' W 130°35'0 0.0 1016.8 22.1
2017-Aug-15 15:00N 26°40' W 130°35'1 1.1 1016.4 22.1
2017-Aug-15 14:00N 26°40' W 130°34'0 0.0 1015.9 22.1
2017-Aug-15 13:00N 26°40' W 130°34'1 0.5 1015.6 22.2
2017-Aug-15 12:00N 26°40' W 130°34'0 0.0 1015.5 22.2
2017-Aug-15 11:00N 26°40' W 130°34'2 2.1 1015.7 22.2
2017-Aug-15 10:00N 26°40' W 130°31'0 0.0 1016.2 22.2
2017-Aug-15 07:00N 26°40' W 130°31'1 0.6 1017.0 22.2
2017-Aug-15 06:00N 26°41' W 130°31'1 0.8 1017.0 22.3
2017-Aug-15 05:00N 26°41' W 130°31'1 0.6 1016.8 22.3
2017-Aug-15 04:00N 26°41' W 130°31'1 0.6 1016.5 22.3
2017-Aug-15 03:00N 26°41' W 130°31'2 2.2 1016.0 22.4
2017-Aug-15 02:00N 26°42' W 130°28'1 0.5 1015.8 22.4
2017-Aug-15 01:00N 26°42' W 130°29'0 0.0 1015.9 22.5
2017-Aug-15 00:00N 26°42' W 130°29'1 0.8 1015.9 22.5
2017-Aug-14 23:00N 26°41' W 130°28'0 0.0 1016.3 22.5
2017-Aug-14 22:00N 26°41' W 130°28'2 0.8 1016.7 22.5
2017-Aug-14 19:00N 26°43' W 130°26'1 0.8 1017.6 22.4
2017-Aug-14 18:00N 26°43' W 130°25'0 0.0 1017.7 22.3
2017-Aug-14 17:00N 26°43' W 130°25'1 0.6 1018.0 22.3
2017-Aug-14 16:00N 26°44' W 130°25'0 0.0 1017.9 22.4
2017-Aug-14 15:00N 26°44' W 130°25'1 0.8 1017.7 22.4
2017-Aug-14 14:00N 26°44' W 130°25'0 0.0 1017.4 22.4
2017-Aug-14 13:00N 26°44' W 130°25'0 0.0 1017.2 22.4
2017-Aug-14 12:00N 26°44' W 130°25'2 1.6 1017.0 22.4
2017-Aug-14 11:00N 26°44' W 130°23'2 1.6 1017.0 22.4
2017-Aug-14 10:00N 26°44' W 130°25'2 0.4 1017.6 22.4
2017-Aug-14 06:00N 26°44' W 130°23'   1018.5 22.5
Track history (hours):
 
Tides and Currents Weather Stations Pressure Air Temp Water Temp Dewpoint Dewpoint Depression Visibility Wind Speed Wind Dir Waves Ship Positions

Drifting buoy 46770

Last reported at 2017-Aug-24 06:00 UTC. Time now 2017-Aug-24 08:50 UTC.
Position N 26°15' W 131°43'.

Barometer 1018.1 mb
Water temperature 22.3 ° C

Date/timePositionNaut miles runAvg speedWind from/ knotsBaromVisibWave heightAir tempDewpointWater temp
2017-Aug-24 06:00N 26°15' W 131°43'0 0.0 1018.1 22.3
2017-Aug-24 05:00N 26°15' W 131°43'1 0.5 1017.9 22.3
2017-Aug-24 04:00N 26°15' W 131°43'1 0.5 1017.4 22.3
2017-Aug-24 03:00N 26°15' W 131°42'1 0.6 1016.9 22.4
2017-Aug-24 02:00N 26°14' W 131°42'1 0.5 1016.5 22.4
2017-Aug-24 01:00N 26°14' W 131°41'0 0.0 1016.5 22.4
2017-Aug-24 00:00N 26°14' W 131°41'0 0.0 1016.6 22.4
2017-Aug-23 23:00N 26°14' W 131°41'0 0.0 1016.8 22.4
2017-Aug-23 22:00N 26°14' W 131°41'0 0.0 1017.1 22.4
2017-Aug-23 21:00N 26°14' W 131°41'2 1.0 1017.3 22.4
2017-Aug-23 19:00N 26°13' W 131°40'1 0.5 1017.8 22.3
2017-Aug-23 18:00N 26°13' W 131°40'1 0.8 1017.7 22.4
2017-Aug-23 17:00N 26°12' W 131°40'1 1.1 1017.7 22.4
2017-Aug-23 16:00N 26°12' W 131°39'2 1.6 1017.3 22.4
2017-Aug-23 15:00N 26°11' W 131°38'1 1.1 1017.0 22.4
2017-Aug-23 14:00N 26°11' W 131°37'0 0.0 1016.5 22.4
2017-Aug-23 13:00N 26°11' W 131°37'0 0.0 1016.3 22.5
2017-Aug-23 12:00N 26°11' W 131°37'4 4.0 1016.4 22.5
2017-Aug-23 11:00N 26°10' W 131°32'3 2.9 1016.7 22.5
2017-Aug-23 10:00N 26°11' W 131°35'4 1.3 1017.3 22.5
2017-Aug-23 07:00N 26°10' W 131°31'1 0.5 1018.0 22.6
2017-Aug-23 06:00N 26°10' W 131°32'1 1.2 1018.3 22.6
2017-Aug-23 05:00N 26°10' W 131°31'1 0.5 1017.8 22.6
2017-Aug-23 04:00N 26°10' W 131°30'1 0.8 1017.5 22.6
2017-Aug-23 03:00N 26°11' W 131°29'1 0.8 1017.4 22.6
2017-Aug-23 02:00N 26°11' W 131°29'0 0.0 1017.1 22.6
2017-Aug-23 01:00N 26°11' W 131°29'1 0.6 1017.0 22.7
2017-Aug-23 00:00N 26°12' W 131°29'0 0.0 1017.1 22.7
2017-Aug-22 22:00N 26°12' W 131°29'1 0.2 1018.1 22.7
2017-Aug-22 19:00N 26°13' W 131°29'0 0.0 1019.2 22.4
2017-Aug-22 18:00N 26°13' W 131°29'0 0.0 1018.7 22.4
2017-Aug-22 17:00N 26°13' W 131°29'0 0.0 1018.6 22.3
2017-Aug-22 16:00N 26°13' W 131°29'1 0.8 1018.1 22.3
2017-Aug-22 15:00N 26°12' W 131°28'0 0.0 1017.8 22.3
2017-Aug-22 14:00N 26°12' W 131°28'0 0.0 1017.3 22.3
2017-Aug-22 13:00N 26°12' W 131°28'0 0.0 1016.9 22.3
2017-Aug-22 12:00N 26°12' W 131°28'1 1.2 1016.8 22.3
2017-Aug-22 11:00N 26°11' W 131°27'1 1.2 1016.8 22.2
2017-Aug-22 10:00N 26°12' W 131°28'2 0.7 1016.8 22.2
2017-Aug-22 07:00N 26°11' W 131°26'1 0.5 1018.1 22.2
2017-Aug-22 06:00N 26°11' W 131°25'1 0.8 1018.3 22.2
2017-Aug-22 05:00N 26°12' W 131°25'1 0.8 1018.0 22.2
2017-Aug-22 04:00N 26°13' W 131°24'2 1.6 1017.6 22.2
2017-Aug-22 03:00N 26°13' W 131°22'1 1.2 1017.0 22.3
2017-Aug-22 02:00N 26°13' W 131°23'1 1.3 1016.8 22.3
2017-Aug-22 01:00N 26°14' W 131°23'0 0.0 1017.1 22.3
2017-Aug-22 00:00N 26°14' W 131°23'1 0.7 1017.0 22.3
2017-Aug-21 22:00N 26°16' W 131°22'2 0.9 1018.1 22.3
2017-Aug-21 20:00N 26°17' W 131°22'1 0.8 1018.8 22.2
2017-Aug-21 19:00N 26°18' W 131°23'0 0.0 1019.1 22.2
2017-Aug-21 18:00N 26°18' W 131°23'1 0.8 1019.1 22.2
2017-Aug-21 17:00N 26°17' W 131°23'1 0.4 1018.9 22.2
2017-Aug-21 15:00N 26°18' W 131°24'2 0.8 1018.0 22.2
2017-Aug-21 13:00N 26°17' W 131°23'0 0.0 1017.4 22.2
2017-Aug-21 12:00N 26°17' W 131°23'2 1.7 1017.4 22.2
2017-Aug-21 11:00N 26°17' W 131°21'2 1.7 1017.5 22.3
2017-Aug-21 10:00N 26°17' W 131°23'2 0.6 1017.9 22.3
2017-Aug-21 07:00N 26°17' W 131°21'1 1.1 1018.8 22.3
2017-Aug-21 06:00N 26°17' W 131°20'0 0.0 1018.5 22.3
2017-Aug-21 05:00N 26°17' W 131°20'1 1.2 1018.0 22.3
2017-Aug-21 04:00N 26°18' W 131°19'0 0.0 1017.5 22.3
2017-Aug-21 03:00N 26°18' W 131°19'1 0.8 1016.9 22.4
2017-Aug-21 02:00N 26°19' W 131°18'1 0.6 1016.7 22.4
2017-Aug-21 01:00N 26°19' W 131°18'0 0.0 1016.5 22.4
2017-Aug-21 00:00N 26°19' W 131°18'1 0.8 1016.7 22.4
2017-Aug-20 23:00N 26°20' W 131°17'0 0.0 1017.0 22.4
2017-Aug-20 22:00N 26°20' W 131°17'3 1.0 1017.8 22.4
2017-Aug-20 19:00N 26°22' W 131°16'0 0.0 1018.9 22.3
2017-Aug-20 18:00N 26°22' W 131°16'1 0.6 1018.8 22.3
2017-Aug-20 17:00N 26°23' W 131°16'0 0.0 1018.7 22.3
2017-Aug-20 16:00N 26°23' W 131°16'0 0.0 1018.6 22.3
2017-Aug-20 15:00N 26°23' W 131°16'1 0.6 1017.9 22.3
2017-Aug-20 14:00N 26°23' W 131°16'1 0.6 1017.5 22.3
2017-Aug-20 13:00N 26°24' W 131°16'0 0.0 1017.6 22.3
2017-Aug-20 12:00N 26°24' W 131°16'1 0.8 1017.8 22.4
2017-Aug-20 11:00N 26°23' W 131°15'2 0.3 1017.9 22.4
2017-Aug-20 06:00N 26°25' W 131°14'1 0.5 1019.4 22.4
2017-Aug-20 05:00N 26°25' W 131°13'0 0.0 1018.6 22.4
2017-Aug-20 04:00N 26°25' W 131°13'0 0.0 1018.0 22.5
2017-Aug-20 03:00N 26°25' W 131°13'1 0.5 1017.4 22.5
2017-Aug-20 02:00N 26°25' W 131°13'1 0.5 1017.2 22.6
2017-Aug-20 01:00N 26°25' W 131°12'1 1.2 1017.2 22.6
2017-Aug-20 00:00N 26°25' W 131°11'0 0.0 1017.4 22.6
2017-Aug-19 23:00N 26°25' W 131°11'0 0.0 1017.8 22.6
2017-Aug-19 22:00N 26°25' W 131°11'3 1.6 1018.5 22.6
2017-Aug-19 20:00N 26°28' W 131°08'1 0.6 1019.4 22.5
2017-Aug-19 19:00N 26°28' W 131°08'1 1.2 1019.4 22.4
2017-Aug-19 18:00N 26°29' W 131°08'1 0.5 1019.6 22.4
2017-Aug-19 17:00N 26°29' W 131°08'1 0.6 1019.3 22.4
2017-Aug-19 16:00N 26°30' W 131°08'0 0.0 1018.8 22.3
2017-Aug-19 15:00N 26°30' W 131°08'1 0.5 1018.4 22.3
2017-Aug-19 14:00N 26°30' W 131°08'1 1.2 1018.0 22.3
2017-Aug-19 13:00N 26°31' W 131°07'1 0.8 1017.7 22.3
2017-Aug-19 12:00N 26°31' W 131°08'0 0.0 1017.7 22.4
2017-Aug-19 11:00N 26°31' W 131°08'1 0.2 1018.0 22.4
2017-Aug-19 06:00N 26°32' W 131°07'1 0.5 1018.9 22.4
2017-Aug-19 05:00N 26°32' W 131°06'0 0.0 1018.8 22.4
2017-Aug-19 04:00N 26°32' W 131°06'1 1.1 1018.3 22.4
2017-Aug-19 03:00N 26°32' W 131°05'0 0.0 1017.9 22.5
2017-Aug-19 02:00N 26°32' W 131°05'1 0.5 1017.5 22.5
2017-Aug-19 01:00N 26°32' W 131°04'1 0.5 1017.4 22.5
2017-Aug-19 00:00N 26°32' W 131°04'0 0.0 1017.6 22.5
2017-Aug-18 23:00N 26°32' W 131°04'3 0.7 1017.9 22.5
2017-Aug-18 19:00N 26°33' W 131°01'1 0.4 1019.5 22.3
2017-Aug-18 17:00N 26°34' W 131°00'1 0.6 1019.4 22.4
2017-Aug-18 16:00N 26°34' W 131°00'1 0.8 1019.1 22.4
2017-Aug-18 15:00N 26°35' W 130°59'0 0.0 1018.7 22.3
2017-Aug-18 14:00N 26°35' W 130°59'0 0.0 1018.4 22.4
2017-Aug-18 13:00N 26°35' W 130°59'0 0.0 1018.0 22.4
2017-Aug-18 12:00N 26°35' W 130°59'0 0.0 1017.9 22.4
2017-Aug-18 11:00N 26°35' W 130°59'1 0.2 1017.7 22.4
2017-Aug-18 07:00N 26°35' W 130°59'1 1.1 1019.1 22.4
2017-Aug-18 06:00N 26°35' W 130°58'1 0.5 1019.1 22.5
2017-Aug-18 05:00N 26°35' W 130°57'1 0.6 1018.7 22.5
2017-Aug-18 04:00N 26°36' W 130°57'1 0.5 1018.2 22.5
2017-Aug-18 03:00N 26°36' W 130°56'1 0.5 1017.8 22.5
2017-Aug-18 02:00N 26°36' W 130°56'1 1.2 1017.6 22.6
2017-Aug-18 01:00N 26°35' W 130°55'0 0.0 1017.6 22.6
2017-Aug-18 00:00N 26°35' W 130°55'0 0.0 1017.7 22.6
2017-Aug-17 23:00N 26°35' W 130°55'3 0.8 1017.8 22.6
2017-Aug-17 19:00N 26°36' W 130°51'1 0.8 1019.0 22.4
2017-Aug-17 18:00N 26°37' W 130°50'0 0.0 1018.8 22.3
2017-Aug-17 17:00N 26°37' W 130°50'1 0.6 1018.6 22.3
2017-Aug-17 16:00N 26°37' W 130°50'1 1.1 1018.5 22.3
2017-Aug-17 15:00N 26°37' W 130°49'0 0.0 1018.0 22.3
2017-Aug-17 14:00N 26°37' W 130°49'2 0.8 1017.6 22.4
2017-Aug-17 12:00N 26°37' W 130°47'0 0.0 1017.0 22.4
2017-Aug-17 11:00N 26°37' W 130°47'0 0.0 1016.9 22.4
2017-Aug-17 07:00N 26°37' W 130°47'1 0.5 1018.1 22.4
2017-Aug-17 06:00N 26°37' W 130°47'0 0.0 1017.8 22.4
2017-Aug-17 05:00N 26°37' W 130°47'1 1.1 1017.4 22.4
2017-Aug-17 04:00N 26°37' W 130°46'0 0.0 1016.9 22.5
2017-Aug-17 03:00N 26°37' W 130°46'1 0.5 1016.4 22.5
2017-Aug-17 02:00N 26°37' W 130°45'0 0.0 1016.1 22.5
2017-Aug-17 01:00N 26°37' W 130°45'2 0.9 1016.2 22.5
2017-Aug-16 23:00N 26°37' W 130°43'0 0.0 1016.3 22.5
2017-Aug-16 22:00N 26°37' W 130°43'0 0.0 1016.7 22.4
2017-Aug-16 21:00N 26°37' W 130°43'2 0.9 1016.9 22.4
2017-Aug-16 19:00N 26°37' W 130°41'1 0.5 1017.1 22.3
2017-Aug-16 18:00N 26°37' W 130°42'0 0.0 1017.1 22.3
2017-Aug-16 17:00N 26°37' W 130°42'1 0.8 1017.1 22.3
2017-Aug-16 16:00N 26°38' W 130°41'0 0.0 1016.8 22.2
2017-Aug-16 15:00N 26°38' W 130°41'1 0.5 1016.3 22.2
2017-Aug-16 14:00N 26°38' W 130°41'0 0.0 1015.9 22.2
2017-Aug-16 13:00N 26°38' W 130°41'0 0.0 1015.5 22.2
2017-Aug-16 12:00N 26°38' W 130°41'0 0.0 1015.5 22.2
2017-Aug-16 10:00N 26°38' W 130°41'1 0.4 1015.6 22.2
2017-Aug-16 07:00N 26°38' W 130°40'0 0.0 1016.8 22.2
2017-Aug-16 06:00N 26°38' W 130°40'1 0.5 1017.0 22.2
2017-Aug-16 05:00N 26°38' W 130°39'1 0.8 1016.6 22.2
2017-Aug-16 04:00N 26°38' W 130°38'0 0.0 1016.0 22.2
2017-Aug-16 03:00N 26°38' W 130°38'0 0.0 1015.5 22.2
2017-Aug-16 02:00N 26°38' W 130°38'1 1.2 1015.3 22.2
2017-Aug-16 01:00N 26°39' W 130°37'0 0.0 1015.4 22.2
2017-Aug-16 00:00N 26°39' W 130°37'0 0.0 1015.6 22.2
2017-Aug-15 23:00N 26°39' W 130°37'0 0.0 1015.7 22.2
2017-Aug-15 22:00N 26°39' W 130°37'1 1.2 1015.9 22.2
2017-Aug-15 21:00N 26°40' W 130°36'1 0.3 1016.4 22.1
2017-Aug-15 19:00N 26°40' W 130°35'0 0.0 1016.9 22.1
2017-Aug-15 18:00N 26°40' W 130°35'1 1.3 1016.8 22.1
2017-Aug-15 17:00N 26°41' W 130°35'1 0.8 1016.7 22.1
2017-Aug-15 16:00N 26°40' W 130°35'0 0.0 1016.8 22.1
2017-Aug-15 15:00N 26°40' W 130°35'1 1.1 1016.4 22.1
2017-Aug-15 14:00N 26°40' W 130°34'0 0.0 1015.9 22.1
2017-Aug-15 13:00N 26°40' W 130°34'1 0.5 1015.6 22.2
2017-Aug-15 12:00N 26°40' W 130°34'0 0.0 1015.5 22.2
2017-Aug-15 11:00N 26°40' W 130°34'2 2.1 1015.7 22.2
2017-Aug-15 10:00N 26°40' W 130°31'0 0.0 1016.2 22.2
2017-Aug-15 07:00N 26°40' W 130°31'1 0.6 1017.0 22.2
2017-Aug-15 06:00N 26°41' W 130°31'1 0.8 1017.0 22.3
2017-Aug-15 05:00N 26°41' W 130°31'1 0.6 1016.8 22.3
2017-Aug-15 04:00N 26°41' W 130°31'1 0.6 1016.5 22.3
2017-Aug-15 03:00N 26°41' W 130°31'2 2.2 1016.0 22.4
2017-Aug-15 02:00N 26°42' W 130°28'1 0.5 1015.8 22.4
2017-Aug-15 01:00N 26°42' W 130°29'0 0.0 1015.9 22.5
2017-Aug-15 00:00N 26°42' W 130°29'1 0.8 1015.9 22.5
2017-Aug-14 23:00N 26°41' W 130°28'0 0.0 1016.3 22.5
2017-Aug-14 22:00N 26°41' W 130°28'2 0.8 1016.7 22.5
2017-Aug-14 19:00N 26°43' W 130°26'1 0.8 1017.6 22.4
2017-Aug-14 18:00N 26°43' W 130°25'0 0.0 1017.7 22.3
2017-Aug-14 17:00N 26°43' W 130°25'1 0.6 1018.0 22.3
2017-Aug-14 16:00N 26°44' W 130°25'0 0.0 1017.9 22.4
2017-Aug-14 15:00N 26°44' W 130°25'1 0.8 1017.7 22.4
2017-Aug-14 14:00N 26°44' W 130°25'0 0.0 1017.4 22.4
2017-Aug-14 13:00N 26°44' W 130°25'0 0.0 1017.2 22.4
2017-Aug-14 12:00N 26°44' W 130°25'2 1.6 1017.0 22.4
2017-Aug-14 11:00N 26°44' W 130°23'2 1.6 1017.0 22.4
2017-Aug-14 10:00N 26°44' W 130°25'2 0.4 1017.6 22.4
2017-Aug-14 06:00N 26°44' W 130°23'   1018.5 22.5

Dump ship's entire track history